Time;durP1;ratioP1;P1;durP2;ratioP2;P2;SDS_P1;SDS_P2;PMS_P1;PMS_P2;Temp;Humidity;BMP_temperature;BMP_pressure;BME280_temperature;BME280_humidity;BME280_pressure;Samples;Min_cycle;Max_cycle;Signal;HPM_P1;HPM_P2
2022/05/28 00:01:31;;;;;;;10.23;1.42;;;;;;;11.73;80.94;101460.41;20929989;28;20052;-65
2022/05/28 00:11:53;;;;;;;11.00;1.30;;;;;;;11.69;79.53;101454.53;20924611;28;20415;-66
2022/05/28 00:22:14;;;;;;;7.83;1.60;;;;;;;11.67;80.46;101461.63;20926150;28;20045;-67
2022/05/28 00:32:36;;;;;;;9.93;1.13;;;;;;;11.59;79.26;101439.50;20930333;28;20296;-66
2022/05/28 00:42:59;;;;;;;10.48;1.25;;;;;;;11.53;79.86;101437.22;20935277;28;20041;-66
2022/05/28 00:53:21;;;;;;;6.78;1.15;;;;;;;11.53;78.02;101458.13;20933894;28;20044;-65
2022/05/28 01:04:00;;;;;;;9.93;1.53;;;;;;;11.48;79.19;101450.53;20913505;28;20036;-66
2022/05/28 01:14:29;;;;;;;7.55;1.50;;;;;;;11.39;78.56;101454.59;20923555;28;20044;-66
2022/05/28 01:24:59;;;;;;;13.20;1.52;;;;;;;11.30;78.86;101445.53;20930258;28;20060;-66
2022/05/28 01:35:23;;;;;;;10.50;1.67;;;;;;;11.24;78.82;101439.81;20918123;28;20521;-67
2022/05/28 01:45:48;;;;;;;10.13;1.30;;;;;;;11.22;77.34;101439.91;20915364;28;20135;-65
2022/05/28 01:56:10;;;;;;;15.18;1.77;;;;;;;11.18;76.89;101430.59;20926114;28;20476;-65
2022/05/28 02:06:34;;;;;;;7.13;1.10;;;;;;;11.09;76.60;101414.63;20926203;28;20044;-66
2022/05/28 02:17:12;;;;;;;13.30;1.70;;;;;;;11.12;76.21;101414.44;20914688;28;20052;-65
2022/05/28 02:27:37;;;;;;;17.05;1.65;;;;;;;11.09;75.28;101412.00;20930156;28;20517;-65
2022/05/28 02:37:59;;;;;;;9.20;1.60;;;;;;;11.08;76.40;101408.53;20922786;28;20439;-66
2022/05/28 02:48:20;;;;;;;14.47;1.80;;;;;;;11.12;75.06;101415.28;20927804;28;20067;-65
2022/05/28 02:58:42;;;;;;;12.50;1.70;;;;;;;11.09;76.40;101425.88;20915215;28;20058;-68
2022/05/28 03:09:08;;;;;;;8.37;1.63;;;;;;;11.16;76.58;101422.00;20924106;28;20033;-65
2022/05/28 03:19:29;;;;;;;10.25;1.52;;;;;;;11.21;75.19;101419.13;20927636;28;20060;-65
2022/05/28 03:29:51;;;;;;;12.77;1.80;;;;;;;11.17;76.46;101428.91;20939907;28;20045;-64
2022/05/28 03:40:12;;;;;;;15.97;2.20;;;;;;;11.18;75.47;101435.81;20913467;28;20408;-64
2022/05/28 03:50:34;;;;;;;19.35;2.30;;;;;;;11.03;78.50;101436.69;20906945;28;20055;-65
2022/05/28 04:00:56;;;;;;;7.93;1.67;;;;;;;11.09;77.61;101451.13;20917962;28;20043;-66
2022/05/28 04:11:17;;;;;;;8.90;1.40;;;;;;;11.17;75.09;101452.38;20914624;28;20516;-66
2022/05/28 04:21:39;;;;;;;10.57;1.90;;;;;;;11.20;76.14;101449.63;20926674;28;20059;-66
2022/05/28 04:32:00;;;;;;;8.73;1.33;;;;;;;11.28;77.59;101452.59;20956110;28;20124;-64
2022/05/28 04:42:22;;;;;;;11.83;2.10;;;;;;;11.29;76.86;101449.06;20974648;28;20065;-65
2022/05/28 04:52:44;;;;;;;17.60;2.50;;;;;;;11.39;77.58;101465.88;20913101;28;20048;-68
2022/05/28 05:03:06;;;;;;;16.20;1.98;;;;;;;11.45;78.42;101485.56;20907684;28;20275;-66
2022/05/28 05:13:27;;;;;;;16.52;1.92;;;;;;;11.43;77.58;101506.53;20904621;28;20040;-65
2022/05/28 05:23:49;;;;;;;13.73;2.25;;;;;;;11.46;79.25;101509.00;20930811;28;20056;-67
2022/05/28 05:34:10;;;;;;;18.17;2.37;;;;;;;11.56;77.77;101504.94;20930628;28;20493;-65
2022/05/28 05:44:32;;;;;;;16.17;2.47;;;;;;;11.83;77.91;101521.63;20958625;28;20412;-67
2022/05/28 05:54:54;;;;;;;;;;;;;;;11.87;85.47;101536.19;20930882;28;20049;-70
2022/05/28 06:05:15;;;;;;;13.03;1.70;;;;;;;11.67;80.08;101539.09;20912508;28;20275;-68
2022/05/28 06:15:37;;;;;;;12.50;1.73;;;;;;;11.68;81.06;101543.41;20934747;28;20071;-67
2022/05/28 06:25:58;;;;;;;9.77;1.83;;;;;;;11.65;80.20;101554.03;20930344;28;20048;-65
2022/05/28 06:36:20;;;;;;;7.13;1.27;;;;;;;11.61;79.35;101555.16;20913099;28;20076;-65
2022/05/28 06:46:41;;;;;;;9.60;1.60;;;;;;;11.77;80.13;101542.91;20897076;28;20049;-67
2022/05/28 06:57:03;;;;;;;7.97;1.70;;;;;;;12.00;78.26;101553.69;20923353;28;20044;-66
2022/05/28 07:07:25;;;;;;;;;;;;;;;12.35;79.69;101548.97;20921188;28;20051;-67
2022/05/28 07:17:46;;;;;;;11.73;2.30;;;;;;;12.63;78.14;101549.78;20928147;28;19920;-67
2022/05/28 07:38:50;;;;;;;15.20;2.13;;;;;;;12.69;74.66;101555.50;20935241;28;20385;-67
2022/05/28 07:49:12;;;;;;;12.77;2.35;;;;;;;13.09;73.73;101559.97;20923310;28;20131;-68
2022/05/28 07:59:34;;;;;;;14.07;1.90;;;;;;;13.66;70.23;101561.47;20908763;28;20041;-67
2022/05/28 08:09:56;;;;;;;11.30;1.80;;;;;;;14.00;69.51;101560.91;20923476;28;20041;-67
2022/05/28 08:20:17;;;;;;;17.27;1.83;;;;;;;13.99;68.98;101570.56;20921586;28;20060;-67
2022/05/28 08:30:39;;;;;;;16.95;2.50;;;;;;;14.10;67.97;101585.56;20923933;28;20051;-69
2022/05/28 08:41:13;;;;;;;13.45;2.22;;;;;;;14.10;65.47;101588.19;20924444;28;20054;-69
2022/05/28 08:52:08;;;;;;;11.55;1.55;;;;;;;14.39;63.67;101589.72;20929880;28;20173;-64
2022/05/28 09:02:38;;;;;;;6.72;1.75;;;;;;;14.34;63.64;101599.69;20909365;28;20077;-65
2022/05/28 09:13:13;;;;;;;7.38;1.52;;;;;;;14.31;62.65;101613.84;20903498;28;20048;-65
2022/05/28 09:24:09;;;;;;;5.53;1.65;;;;;;;13.99;72.27;101632.63;20920657;28;20493;-65
2022/05/28 09:34:53;;;;;;;6.30;1.48;;;;;;;13.79;70.19;101627.84;20910442;28;20431;-66
2022/05/28 09:45:31;;;;;;;8.55;1.50;;;;;;;13.90;67.23;101633.22;20902289;28;20048;-66
2022/05/28 09:56:15;;;;;;;11.60;1.98;;;;;;;14.22;67.61;101603.13;20906150;28;20049;-65
2022/05/28 10:06:49;;;;;;;16.90;2.28;;;;;;;14.39;66.66;101629.91;20925033;28;20052;-65
2022/05/28 10:17:23;;;;;;;16.83;2.58;;;;;;;14.23;69.97;101618.75;20904174;28;20037;-65
2022/05/28 10:27:50;;;;;;;13.30;2.40;;;;;;;14.80;67.46;101609.53;20915271;28;20051;-65
2022/05/28 10:38:24;;;;;;;16.52;2.00;;;;;;;15.26;63.90;101611.50;20922580;28;20072;-64
2022/05/28 10:49:06;;;;;;;12.40;1.83;;;;;;;15.38;59.00;101602.75;20931391;28;20045;-64
2022/05/28 10:59:42;;;;;;;;;;;;;;;15.56;55.94;101630.31;20922109;28;20394;-62
2022/05/28 11:10:10;;;;;;;9.65;1.67;;;;;;;16.10;57.17;101613.09;20923153;28;20354;-63
2022/05/28 11:20:46;;;;;;;8.05;1.85;;;;;;;15.80;62.63;101628.53;20914850;28;20476;-63
2022/05/28 11:31:36;;;;;;;11.25;2.08;;;;;;;16.09;58.06;101640.38;20926443;28;20052;-63
2022/05/28 11:42:02;;;;;;;;;;;;;;;16.00;55.58;101633.16;20940397;28;20132;-62
2022/05/28 11:52:38;;;;;;;7.03;1.30;;;;;;;16.10;57.77;101636.78;20918426;28;19920;-63
2022/05/28 12:03:07;;;;;;;7.00;1.42;;;;;;;16.65;55.94;101636.00;20913547;28;20045;-63
2022/05/28 12:13:46;;;;;;;11.95;1.70;;;;;;;15.65;56.55;101637.53;20914704;28;20068;-62
2022/05/28 12:24:14;;;;;;;11.23;1.90;;;;;;;15.43;59.44;101624.25;20926063;28;20049;-62
2022/05/28 12:34:37;;;;;;;14.32;1.50;;;;;;;15.55;62.30;101618.13;20921449;28;20087;-62
2022/05/28 12:45:34;;;;;;;9.80;1.83;;;;;;;15.81;56.47;101590.78;20916020;28;20071;-62
2022/05/28 12:56:19;;;;;;;10.98;1.52;;;;;;;15.47;57.90;101602.91;20918348;28;20061;-63
2022/05/28 13:06:52;;;;;;;14.02;1.92;;;;;;;15.34;59.17;101603.91;20923615;28;20049;-62
2022/05/28 13:17:47;;;;;;;7.13;1.50;;;;;;;15.52;56.66;101581.56;20897033;28;20408;-62
2022/05/28 13:28:34;;;;;;;10.93;1.73;;;;;;;15.75;56.28;101589.44;20906854;28;20052;-63
2022/05/28 13:38:56;;;;;;;12.70;1.90;;;;;;;15.38;63.47;101615.88;20915488;28;20040;-64
2022/05/28 13:49:22;;;;;;;9.52;1.50;;;;;;;15.00;68.32;101617.69;20948773;28;20060;-65
2022/05/28 13:59:55;;;;;;;11.00;1.88;;;;;;;14.91;67.82;101607.84;20927247;28;20499;-63
2022/05/28 14:10:19;;;;;;;9.68;1.17;;;;;;;15.11;66.69;101602.06;20906444;28;20132;-64
2022/05/28 14:20:40;;;;;;;4.50;1.00;;;;;;;15.23;63.74;101606.44;20936104;28;20045;-61
2022/05/28 14:31:02;;;;;;;;;;;;;;;15.00;58.03;101594.06;20912089;28;20462;-63
2022/05/28 14:41:24;;;;;;;10.38;1.65;;;;;;;15.05;65.13;101591.97;20908196;28;20019;-64
2022/05/28 14:51:46;;;;;;;11.20;1.60;;;;;;;14.99;63.44;101591.56;20931777;28;20045;-63
2022/05/28 15:02:33;;;;;;;6.65;1.38;;;;;;;15.47;55.98;101566.13;20947236;28;20082;-64
2022/05/28 15:13:07;;;;;;;12.27;1.25;;;;;;;15.47;55.99;101567.91;20919067;28;20037;-62
2022/05/28 15:23:30;;;;;;;8.27;1.50;;;;;;;15.34;61.85;101585.50;20923230;28;20040;-64
2022/05/28 15:33:52;;;;;;;5.10;1.30;;;;;;;15.43;60.62;101566.44;20921425;28;20040;-64
2022/05/28 15:44:14;;;;;;;10.90;1.88;;;;;;;15.72;61.51;101562.50;20928273;28;20412;-64
2022/05/28 15:54:35;;;;;;;11.77;1.40;;;;;;;15.05;67.45;101586.72;20913600;28;20041;-64
2022/05/28 16:04:57;;;;;;;8.38;1.50;;;;;;;14.06;72.47;101573.59;20931399;28;20580;-63
2022/05/28 16:15:19;;;;;;;4.82;1.23;;;;;;;13.74;72.92;101564.41;20933920;28;20128;-63
2022/05/28 16:25:40;;;;;;;;;;;;;;;14.62;72.73;101558.34;20923496;28;20140;-63
2022/05/28 16:36:02;;;;;;;7.63;1.47;;;;;;;14.39;72.05;101558.25;20927373;28;19931;-63
2022/05/28 16:46:24;;;;;;;8.38;1.42;;;;;;;13.89;70.84;101573.88;20946372;28;20072;-63
2022/05/28 16:56:46;;;;;;;11.68;1.33;;;;;;;13.58;70.23;101558.50;20949908;28;20036;-62
2022/05/28 17:07:08;;;;;;;10.05;1.60;;;;;;;13.91;69.70;101551.03;20933189;28;20052;-63
2022/05/28 17:17:30;;;;;;;9.88;1.88;;;;;;;13.99;70.17;101533.84;20919643;28;20086;-61
2022/05/28 17:27:51;;;;;;;9.70;2.05;;;;;;;13.88;70.87;101546.00;20911700;28;20056;-61
2022/05/28 17:38:14;;;;;;;11.65;1.58;;;;;;;14.11;70.49;101534.81;20908963;28;20043;-62
2022/05/28 17:48:39;;;;;;;18.67;2.20;;;;;;;13.99;69.63;101539.09;20918344;28;20040;-61
2022/05/28 17:59:02;;;;;;;12.77;2.13;;;;;;;13.94;69.51;101542.97;20911876;28;20048;-62
2022/05/28 18:09:24;;;;;;;9.18;1.88;;;;;;;13.68;71.97;101564.84;20913692;28;20054;-62
2022/05/28 18:19:48;;;;;;;10.55;1.75;;;;;;;13.25;73.19;101534.47;20907787;28;20072;-69
2022/05/28 18:30:13;;;;;;;13.48;2.50;;;;;;;13.17;73.20;101535.94;20910360;28;20045;-66
2022/05/28 18:40:38;;;;;;;9.15;2.00;;;;;;;13.17;74.23;101515.81;20887738;28;20032;-66
2022/05/28 18:51:03;;;;;;;14.98;2.83;;;;;;;13.05;74.06;101511.38;20915770;28;20037;-65
2022/05/28 19:01:25;;;;;;;;;;;;;;;12.90;79.19;101507.09;20939756;28;20044;-66
2022/05/28 19:11:49;;;;;;;;;;;;;;;12.69;80.75;101491.88;20933917;28;19921;-66
2022/05/28 19:22:30;;;;;;;13.48;2.42;;;;;;;12.64;76.57;101489.56;20926226;28;19932;-65
2022/05/28 19:32:53;;;;;;;11.90;2.40;;;;;;;12.72;77.22;101487.28;20917446;28;20045;-66
2022/05/28 19:43:20;;;;;;;10.48;2.50;;;;;;;12.63;76.74;101481.78;20915802;28;20762;-65
2022/05/28 19:53:42;;;;;;;10.02;2.40;;;;;;;12.63;77.69;101481.78;20928113;28;20045;-66
2022/05/28 20:04:04;;;;;;;16.17;2.77;;;;;;;12.60;76.73;101472.38;20918522;28;20051;-67
2022/05/28 20:14:28;;;;;;;;;;;;;;;12.57;80.50;101462.09;20904190;28;20287;-66
2022/05/28 20:24:50;;;;;;;14.93;2.40;;;;;;;12.55;76.98;101443.03;20922885;28;19928;-65
2022/05/28 20:35:16;;;;;;;7.53;1.90;;;;;;;12.50;78.76;101439.88;20917919;28;20669;-66
2022/05/28 20:45:39;;;;;;;15.13;2.53;;;;;;;12.49;76.45;101437.34;20917288;28;20286;-66
2022/05/28 20:56:02;;;;;;;12.10;2.40;;;;;;;12.48;77.07;101430.44;20904092;28;20540;-66
2022/05/28 21:06:31;;;;;;;15.05;2.17;;;;;;;12.44;80.68;101413.28;20912031;28;20036;-67
2022/05/28 21:16:54;;;;;;;12.70;2.38;;;;;;;12.37;78.93;101403.31;20955403;28;20036;-66
2022/05/28 21:38:01;;;;;;;13.55;2.50;;;;;;;12.30;79.25;101389.75;20910256;28;20067;-67
2022/05/28 21:48:29;;;;;;;8.20;2.30;;;;;;;12.28;78.28;101380.34;20912649;28;20056;-66
2022/05/28 21:58:50;;;;;;;14.35;2.70;;;;;;;12.23;78.61;101377.16;20911305;28;20653;-70
2022/05/28 22:09:12;;;;;;;16.80;2.50;;;;;;;12.16;78.83;101368.03;20914906;28;20044;-67
2022/05/28 22:19:34;;;;;;;11.10;2.60;;;;;;;12.13;78.35;101361.22;20938188;28;20048;-67
2022/05/28 22:29:56;;;;;;;;;;;;;;;12.13;83.75;101349.94;20926133;28;20047;-68
2022/05/28 22:40:17;;;;;;;15.83;2.40;;;;;;;12.09;79.53;101344.06;20941050;28;19927;-69
2022/05/28 22:50:42;;;;;;;10.70;2.40;;;;;;;12.01;80.66;101358.53;20929677;28;20076;-67
2022/05/28 23:01:07;;;;;;;15.60;3.08;;;;;;;11.89;80.94;101341.00;20933198;28;20055;-64
2022/05/28 23:11:29;;;;;;;16.92;3.33;;;;;;;11.81;81.62;101322.34;20935226;28;20061;-64
2022/05/28 23:21:51;;;;;;;15.10;3.23;;;;;;;11.76;81.54;101311.34;20919162;28;20045;-65
2022/05/28 23:32:12;;;;;;;;;;;;;;;11.64;85.84;101296.44;20913019;28;20412;-65
2022/05/28 23:42:34;;;;;;;20.00;3.53;;;;;;;11.66;80.49;101303.25;20924459;28;19931;-68
2022/05/28 23:52:58;;;;;;;11.43;2.70;;;;;;;11.68;80.20;101284.84;20928426;28;20041;-64
